sensor_id;sensor_type;location;lat;lon;timestamp;P1;durP1;ratioP1;P2;durP2;ratioP2
53367;SDS011;39271;45.618;20.024;2022-07-23T00:00:11;17.90;;;6.68;;
53367;SDS011;39271;45.618;20.024;2022-07-23T00:02:41;16.17;;;7.50;;
53367;SDS011;39271;45.618;20.024;2022-07-23T00:05:10;24.83;;;7.18;;
53367;SDS011;39271;45.618;20.024;2022-07-23T00:07:39;16.17;;;6.97;;
53367;SDS011;39271;45.618;20.024;2022-07-23T00:10:05;21.38;;;7.13;;
53367;SDS011;39271;45.618;20.024;2022-07-23T00:12:32;20.38;;;7.45;;
53367;SDS011;39271;45.618;20.024;2022-07-23T00:14:58;14.13;;;7.15;;
53367;SDS011;39271;45.618;20.024;2022-07-23T00:17:33;14.20;;;7.40;;
53367;SDS011;39271;45.618;20.024;2022-07-23T00:19:59;14.93;;;7.38;;
53367;SDS011;39271;45.618;20.024;2022-07-23T00:22:25;16.42;;;7.82;;
53367;SDS011;39271;45.618;20.024;2022-07-23T00:24:55;20.77;;;8.00;;
53367;SDS011;39271;45.618;20.024;2022-07-23T00:27:22;15.00;;;7.85;;
53367;SDS011;39271;45.618;20.024;2022-07-23T00:29:59;17.70;;;7.88;;
53367;SDS011;39271;45.618;20.024;2022-07-23T00:32:25;23.00;;;7.47;;
53367;SDS011;39271;45.618;20.024;2022-07-23T00:34:51;18.10;;;8.07;;
53367;SDS011;39271;45.618;20.024;2022-07-23T00:37:19;20.60;;;8.38;;
53367;SDS011;39271;45.618;20.024;2022-07-23T00:39:48;17.38;;;7.63;;
53367;SDS011;39271;45.618;20.024;2022-07-23T00:42:14;17.15;;;7.60;;
53367;SDS011;39271;45.618;20.024;2022-07-23T00:44:42;16.80;;;8.10;;
53367;SDS011;39271;45.618;20.024;2022-07-23T00:47:12;24.52;;;9.10;;
53367;SDS011;39271;45.618;20.024;2022-07-23T00:49:38;17.92;;;8.35;;
53367;SDS011;39271;45.618;20.024;2022-07-23T00:52:09;21.23;;;9.00;;
53367;SDS011;39271;45.618;20.024;2022-07-23T00:54:38;21.27;;;8.07;;
53367;SDS011;39271;45.618;20.024;2022-07-23T00:57:04;16.05;;;7.35;;
53367;SDS011;39271;45.618;20.024;2022-07-23T00:59:35;17.17;;;7.68;;
53367;SDS011;39271;45.618;20.024;2022-07-23T01:02:06;20.42;;;7.68;;
53367;SDS011;39271;45.618;20.024;2022-07-23T01:04:34;24.60;;;8.98;;
53367;SDS011;39271;45.618;20.024;2022-07-23T01:07:00;15.95;;;8.57;;
53367;SDS011;39271;45.618;20.024;2022-07-23T01:09:38;20.50;;;9.52;;
53367;SDS011;39271;45.618;20.024;2022-07-23T01:12:07;23.75;;;9.95;;
53367;SDS011;39271;45.618;20.024;2022-07-23T01:14:33;27.08;;;8.70;;
53367;SDS011;39271;45.618;20.024;2022-07-23T01:17:05;21.02;;;9.82;;
53367;SDS011;39271;45.618;20.024;2022-07-23T01:19:30;24.98;;;11.20;;
53367;SDS011;39271;45.618;20.024;2022-07-23T01:22:01;30.55;;;13.73;;
53367;SDS011;39271;45.618;20.024;2022-07-23T01:24:28;28.02;;;11.95;;
53367;SDS011;39271;45.618;20.024;2022-07-23T01:26:55;22.25;;;12.40;;
53367;SDS011;39271;45.618;20.024;2022-07-23T01:29:26;30.27;;;12.10;;
53367;SDS011;39271;45.618;20.024;2022-07-23T01:31:52;24.92;;;11.38;;
53367;SDS011;39271;45.618;20.024;2022-07-23T01:34:18;23.80;;;10.57;;
53367;SDS011;39271;45.618;20.024;2022-07-23T01:36:49;18.30;;;10.77;;
53367;SDS011;39271;45.618;20.024;2022-07-23T01:39:18;21.75;;;12.63;;
53367;SDS011;39271;45.618;20.024;2022-07-23T01:41:43;25.50;;;11.48;;
53367;SDS011;39271;45.618;20.024;2022-07-23T01:44:12;21.70;;;9.40;;
53367;SDS011;39271;45.618;20.024;2022-07-23T01:46:38;22.33;;;10.95;;
53367;SDS011;39271;45.618;20.024;2022-07-23T01:49:04;18.40;;;10.75;;
53367;SDS011;39271;45.618;20.024;2022-07-23T01:51:32;24.30;;;10.63;;
53367;SDS011;39271;45.618;20.024;2022-07-23T01:53:58;29.77;;;12.55;;
53367;SDS011;39271;45.618;20.024;2022-07-23T01:56:24;29.17;;;11.35;;
53367;SDS011;39271;45.618;20.024;2022-07-23T01:58:49;26.83;;;11.40;;
53367;SDS011;39271;45.618;20.024;2022-07-23T02:01:15;32.15;;;14.60;;
53367;SDS011;39271;45.618;20.024;2022-07-23T02:03:44;28.67;;;12.93;;
53367;SDS011;39271;45.618;20.024;2022-07-23T02:06:09;26.23;;;11.88;;
53367;SDS011;39271;45.618;20.024;2022-07-23T02:08:35;31.38;;;13.85;;
53367;SDS011;39271;45.618;20.024;2022-07-23T02:11:01;26.67;;;13.00;;
53367;SDS011;39271;45.618;20.024;2022-07-23T02:13:27;30.45;;;13.38;;
53367;SDS011;39271;45.618;20.024;2022-07-23T02:15:54;35.63;;;14.43;;
53367;SDS011;39271;45.618;20.024;2022-07-23T02:18:22;35.38;;;14.23;;
53367;SDS011;39271;45.618;20.024;2022-07-23T02:20:48;30.65;;;14.65;;
53367;SDS011;39271;45.618;20.024;2022-07-23T02:23:14;37.38;;;15.73;;
53367;SDS011;39271;45.618;20.024;2022-07-23T02:25:48;34.45;;;15.27;;
53367;SDS011;39271;45.618;20.024;2022-07-23T02:28:17;42.30;;;18.02;;
53367;SDS011;39271;45.618;20.024;2022-07-23T02:30:45;36.30;;;16.95;;
53367;SDS011;39271;45.618;20.024;2022-07-23T02:33:13;38.33;;;18.05;;
53367;SDS011;39271;45.618;20.024;2022-07-23T02:35:39;39.63;;;17.98;;
53367;SDS011;39271;45.618;20.024;2022-07-23T02:38:05;38.90;;;16.33;;
53367;SDS011;39271;45.618;20.024;2022-07-23T02:40:31;37.22;;;16.63;;
53367;SDS011;39271;45.618;20.024;2022-07-23T02:42:57;43.90;;;17.85;;
53367;SDS011;39271;45.618;20.024;2022-07-23T02:45:22;35.83;;;16.60;;
53367;SDS011;39271;45.618;20.024;2022-07-23T02:47:48;32.55;;;17.65;;
53367;SDS011;39271;45.618;20.024;2022-07-23T02:50:20;35.90;;;17.05;;
53367;SDS011;39271;45.618;20.024;2022-07-23T02:52:45;30.73;;;17.05;;
53367;SDS011;39271;45.618;20.024;2022-07-23T02:55:14;33.67;;;16.55;;
53367;SDS011;39271;45.618;20.024;2022-07-23T02:57:40;35.92;;;18.10;;
53367;SDS011;39271;45.618;20.024;2022-07-23T03:00:08;32.53;;;15.75;;
53367;SDS011;39271;45.618;20.024;2022-07-23T03:02:38;36.10;;;16.17;;
53367;SDS011;39271;45.618;20.024;2022-07-23T03:05:04;37.20;;;16.90;;
53367;SDS011;39271;45.618;20.024;2022-07-23T03:07:33;29.33;;;17.08;;
53367;SDS011;39271;45.618;20.024;2022-07-23T03:09:59;31.83;;;15.57;;
53367;SDS011;39271;45.618;20.024;2022-07-23T03:12:28;40.08;;;16.30;;
53367;SDS011;39271;45.618;20.024;2022-07-23T03:14:57;38.97;;;17.92;;
53367;SDS011;39271;45.618;20.024;2022-07-23T03:17:23;35.17;;;14.82;;
53367;SDS011;39271;45.618;20.024;2022-07-23T03:19:52;50.85;;;17.23;;
53367;SDS011;39271;45.618;20.024;2022-07-23T03:22:18;50.45;;;16.60;;
53367;SDS011;39271;45.618;20.024;2022-07-23T03:24:53;44.30;;;17.05;;
53367;SDS011;39271;45.618;20.024;2022-07-23T03:27:20;44.25;;;17.63;;
53367;SDS011;39271;45.618;20.024;2022-07-23T03:29:46;26.35;;;15.20;;
53367;SDS011;39271;45.618;20.024;2022-07-23T03:32:18;37.38;;;16.50;;
53367;SDS011;39271;45.618;20.024;2022-07-23T03:34:47;37.55;;;17.23;;
53367;SDS011;39271;45.618;20.024;2022-07-23T03:37:16;36.25;;;16.77;;
53367;SDS011;39271;45.618;20.024;2022-07-23T03:39:42;36.78;;;15.23;;
53367;SDS011;39271;45.618;20.024;2022-07-23T03:42:08;41.75;;;14.68;;
53367;SDS011;39271;45.618;20.024;2022-07-23T03:44:34;44.42;;;16.08;;
53367;SDS011;39271;45.618;20.024;2022-07-23T03:47:02;34.50;;;15.07;;
53367;SDS011;39271;45.618;20.024;2022-07-23T03:49:29;32.58;;;15.15;;
53367;SDS011;39271;45.618;20.024;2022-07-23T03:51:54;31.45;;;15.85;;
53367;SDS011;39271;45.618;20.024;2022-07-23T03:54:20;33.17;;;13.32;;
53367;SDS011;39271;45.618;20.024;2022-07-23T03:56:46;43.05;;;14.45;;
53367;SDS011;39271;45.618;20.024;2022-07-23T03:59:17;36.05;;;14.23;;
53367;SDS011;39271;45.618;20.024;2022-07-23T04:01:49;28.95;;;13.10;;
53367;SDS011;39271;45.618;20.024;2022-07-23T04:04:24;24.45;;;13.23;;
53367;SDS011;39271;45.618;20.024;2022-07-23T04:06:52;35.38;;;13.13;;
53367;SDS011;39271;45.618;20.024;2022-07-23T04:09:18;26.30;;;12.30;;
53367;SDS011;39271;45.618;20.024;2022-07-23T04:11:46;26.55;;;12.35;;
53367;SDS011;39271;45.618;20.024;2022-07-23T04:14:12;41.13;;;15.45;;
53367;SDS011;39271;45.618;20.024;2022-07-23T04:16:39;33.83;;;13.43;;
53367;SDS011;39271;45.618;20.024;2022-07-23T04:19:04;41.13;;;13.88;;
53367;SDS011;39271;45.618;20.024;2022-07-23T04:21:33;60.17;;;15.73;;
53367;SDS011;39271;45.618;20.024;2022-07-23T04:24:07;40.20;;;13.77;;
53367;SDS011;39271;45.618;20.024;2022-07-23T04:26:33;43.92;;;14.63;;
53367;SDS011;39271;45.618;20.024;2022-07-23T04:28:59;32.70;;;15.15;;
53367;SDS011;39271;45.618;20.024;2022-07-23T04:31:28;29.90;;;12.55;;
53367;SDS011;39271;45.618;20.024;2022-07-23T04:33:57;64.03;;;15.23;;
53367;SDS011;39271;45.618;20.024;2022-07-23T04:36:29;33.30;;;13.82;;
53367;SDS011;39271;45.618;20.024;2022-07-23T04:39:00;36.53;;;12.30;;
53367;SDS011;39271;45.618;20.024;2022-07-23T04:41:28;34.65;;;12.30;;
53367;SDS011;39271;45.618;20.024;2022-07-23T04:43:57;32.03;;;11.55;;
53367;SDS011;39271;45.618;20.024;2022-07-23T04:46:32;37.15;;;12.63;;
53367;SDS011;39271;45.618;20.024;2022-07-23T04:49:10;30.25;;;12.32;;
53367;SDS011;39271;45.618;20.024;2022-07-23T04:51:43;33.15;;;13.00;;
53367;SDS011;39271;45.618;20.024;2022-07-23T04:54:09;26.35;;;11.32;;
53367;SDS011;39271;45.618;20.024;2022-07-23T04:56:35;26.88;;;11.05;;
53367;SDS011;39271;45.618;20.024;2022-07-23T04:59:07;23.83;;;9.57;;
53367;SDS011;39271;45.618;20.024;2022-07-23T05:01:33;19.90;;;8.98;;
53367;SDS011;39271;45.618;20.024;2022-07-23T05:04:02;20.58;;;8.90;;
53367;SDS011;39271;45.618;20.024;2022-07-23T05:06:28;19.55;;;8.20;;
53367;SDS011;39271;45.618;20.024;2022-07-23T05:08:54;18.02;;;8.55;;
53367;SDS011;39271;45.618;20.024;2022-07-23T05:11:20;15.00;;;9.32;;
53367;SDS011;39271;45.618;20.024;2022-07-23T05:13:48;15.75;;;9.20;;
53367;SDS011;39271;45.618;20.024;2022-07-23T05:16:22;25.38;;;9.98;;
53367;SDS011;39271;45.618;20.024;2022-07-23T05:18:47;19.85;;;9.13;;
53367;SDS011;39271;45.618;20.024;2022-07-23T05:21:19;16.73;;;8.48;;
53367;SDS011;39271;45.618;20.024;2022-07-23T05:23:45;15.57;;;8.70;;
53367;SDS011;39271;45.618;20.024;2022-07-23T05:26:11;21.80;;;9.73;;
53367;SDS011;39271;45.618;20.024;2022-07-23T05:28:39;24.42;;;10.48;;
53367;SDS011;39271;45.618;20.024;2022-07-23T05:31:24;22.90;;;11.52;;
53367;SDS011;39271;45.618;20.024;2022-07-23T05:34:28;27.15;;;10.80;;
53367;SDS011;39271;45.618;20.024;2022-07-23T05:37:18;30.52;;;9.05;;
53367;SDS011;39271;45.618;20.024;2022-07-23T05:42:51;22.90;;;8.90;;
53367;SDS011;39271;45.618;20.024;2022-07-23T05:45:25;22.15;;;9.80;;
53367;SDS011;39271;45.618;20.024;2022-07-23T05:48:03;19.30;;;8.95;;
53367;SDS011;39271;45.618;20.024;2022-07-23T05:50:32;26.48;;;8.73;;
53367;SDS011;39271;45.618;20.024;2022-07-23T05:52:58;35.30;;;10.95;;
53367;SDS011;39271;45.618;20.024;2022-07-23T05:55:32;22.42;;;9.60;;
53367;SDS011;39271;45.618;20.024;2022-07-23T05:58:13;26.85;;;11.30;;
53367;SDS011;39271;45.618;20.024;2022-07-23T06:04:01;27.30;;;8.00;;
53367;SDS011;39271;45.618;20.024;2022-07-23T06:06:27;28.42;;;8.30;;
53367;SDS011;39271;45.618;20.024;2022-07-23T06:08:53;23.27;;;9.00;;
53367;SDS011;39271;45.618;20.024;2022-07-23T06:11:19;21.85;;;7.88;;
53367;SDS011;39271;45.618;20.024;2022-07-23T06:13:44;21.88;;;8.45;;
53367;SDS011;39271;45.618;20.024;2022-07-23T06:16:10;19.65;;;8.10;;
53367;SDS011;39271;45.618;20.024;2022-07-23T06:18:36;19.40;;;8.80;;
53367;SDS011;39271;45.618;20.024;2022-07-23T06:21:02;16.55;;;6.55;;
53367;SDS011;39271;45.618;20.024;2022-07-23T06:23:31;14.30;;;6.50;;
53367;SDS011;39271;45.618;20.024;2022-07-23T06:26:13;20.15;;;8.48;;
53367;SDS011;39271;45.618;20.024;2022-07-23T06:28:48;14.13;;;6.03;;
53367;SDS011;39271;45.618;20.024;2022-07-23T06:31:14;16.08;;;5.93;;
53367;SDS011;39271;45.618;20.024;2022-07-23T06:33:40;17.75;;;7.38;;
53367;SDS011;39271;45.618;20.024;2022-07-23T06:36:06;17.98;;;7.30;;
53367;SDS011;39271;45.618;20.024;2022-07-23T06:38:32;22.73;;;9.95;;
53367;SDS011;39271;45.618;20.024;2022-07-23T06:41:12;24.85;;;9.32;;
53367;SDS011;39271;45.618;20.024;2022-07-23T06:43:38;26.63;;;12.18;;
53367;SDS011;39271;45.618;20.024;2022-07-23T06:46:04;21.75;;;7.72;;
53367;SDS011;39271;45.618;20.024;2022-07-23T06:48:30;21.13;;;7.35;;
53367;SDS011;39271;45.618;20.024;2022-07-23T06:50:56;18.00;;;6.50;;
53367;SDS011;39271;45.618;20.024;2022-07-23T06:53:22;20.40;;;8.20;;
53367;SDS011;39271;45.618;20.024;2022-07-23T06:55:47;17.70;;;6.45;;
53367;SDS011;39271;45.618;20.024;2022-07-23T06:58:16;18.33;;;6.03;;
53367;SDS011;39271;45.618;20.024;2022-07-23T07:04:16;15.02;;;5.20;;
53367;SDS011;39271;45.618;20.024;2022-07-23T07:06:50;15.43;;;5.30;;
53367;SDS011;39271;45.618;20.024;2022-07-23T07:09:19;16.30;;;6.10;;
53367;SDS011;39271;45.618;20.024;2022-07-23T07:14:48;20.02;;;7.30;;
53367;SDS011;39271;45.618;20.024;2022-07-23T07:17:21;21.80;;;7.70;;
53367;SDS011;39271;45.618;20.024;2022-07-23T07:19:54;20.85;;;9.50;;
53367;SDS011;39271;45.618;20.024;2022-07-23T07:22:19;17.25;;;7.03;;
53367;SDS011;39271;45.618;20.024;2022-07-23T07:24:48;15.25;;;6.55;;
53367;SDS011;39271;45.618;20.024;2022-07-23T07:27:14;9.82;;;4.97;;
53367;SDS011;39271;45.618;20.024;2022-07-23T07:29:45;15.95;;;5.95;;
53367;SDS011;39271;45.618;20.024;2022-07-23T07:32:13;14.68;;;6.05;;
53367;SDS011;39271;45.618;20.024;2022-07-23T07:34:42;17.38;;;7.78;;
53367;SDS011;39271;45.618;20.024;2022-07-23T07:37:08;23.33;;;9.05;;
53367;SDS011;39271;45.618;20.024;2022-07-23T07:39:34;13.95;;;9.00;;
53367;SDS011;39271;45.618;20.024;2022-07-23T07:42:05;24.38;;;8.32;;
53367;SDS011;39271;45.618;20.024;2022-07-23T07:44:34;26.15;;;10.98;;
53367;SDS011;39271;45.618;20.024;2022-07-23T07:46:59;14.65;;;7.80;;
53367;SDS011;39271;45.618;20.024;2022-07-23T07:49:25;17.65;;;7.97;;
53367;SDS011;39271;45.618;20.024;2022-07-23T07:51:56;15.48;;;7.35;;
53367;SDS011;39271;45.618;20.024;2022-07-23T07:54:25;14.48;;;8.38;;
53367;SDS011;39271;45.618;20.024;2022-07-23T07:56:57;18.08;;;8.70;;
53367;SDS011;39271;45.618;20.024;2022-07-23T07:59:41;18.98;;;7.22;;
53367;SDS011;39271;45.618;20.024;2022-07-23T08:02:09;18.77;;;8.68;;
53367;SDS011;39271;45.618;20.024;2022-07-23T08:04:44;15.38;;;8.13;;
53367;SDS011;39271;45.618;20.024;2022-07-23T08:07:10;18.67;;;8.53;;
53367;SDS011;39271;45.618;20.024;2022-07-23T08:09:45;19.02;;;8.35;;
53367;SDS011;39271;45.618;20.024;2022-07-23T08:15:43;14.82;;;5.90;;
53367;SDS011;39271;45.618;20.024;2022-07-23T08:18:12;12.70;;;5.72;;
53367;SDS011;39271;45.618;20.024;2022-07-23T08:20:38;13.82;;;4.97;;
53367;SDS011;39271;45.618;20.024;2022-07-23T08:23:10;11.52;;;4.72;;
53367;SDS011;39271;45.618;20.024;2022-07-23T08:25:37;8.65;;;4.13;;
53367;SDS011;39271;45.618;20.024;2022-07-23T08:28:10;18.02;;;7.10;;
53367;SDS011;39271;45.618;20.024;2022-07-23T08:33:33;7.10;;;4.15;;
53367;SDS011;39271;45.618;20.024;2022-07-23T08:36:05;9.50;;;4.55;;
53367;SDS011;39271;45.618;20.024;2022-07-23T08:38:31;10.73;;;4.45;;
53367;SDS011;39271;45.618;20.024;2022-07-23T08:41:02;6.90;;;3.70;;
53367;SDS011;39271;45.618;20.024;2022-07-23T08:43:30;13.88;;;3.80;;
53367;SDS011;39271;45.618;20.024;2022-07-23T08:45:57;9.55;;;3.85;;
53367;SDS011;39271;45.618;20.024;2022-07-23T08:48:25;11.63;;;3.83;;
53367;SDS011;39271;45.618;20.024;2022-07-23T08:50:53;6.78;;;3.17;;
53367;SDS011;39271;45.618;20.024;2022-07-23T08:53:23;16.33;;;3.83;;
53367;SDS011;39271;45.618;20.024;2022-07-23T08:55:53;9.15;;;3.65;;
53367;SDS011;39271;45.618;20.024;2022-07-23T08:58:20;9.20;;;4.60;;
53367;SDS011;39271;45.618;20.024;2022-07-23T09:00:47;13.18;;;3.80;;
53367;SDS011;39271;45.618;20.024;2022-07-23T09:03:24;15.18;;;4.72;;
53367;SDS011;39271;45.618;20.024;2022-07-23T09:05:58;11.85;;;4.20;;
53367;SDS011;39271;45.618;20.024;2022-07-23T09:08:35;13.32;;;5.20;;
53367;SDS011;39271;45.618;20.024;2022-07-23T09:11:05;12.73;;;5.68;;
53367;SDS011;39271;45.618;20.024;2022-07-23T09:13:37;14.48;;;4.03;;
53367;SDS011;39271;45.618;20.024;2022-07-23T09:16:36;14.35;;;4.40;;
53367;SDS011;39271;45.618;20.024;2022-07-23T09:19:02;16.02;;;4.60;;
53367;SDS011;39271;45.618;20.024;2022-07-23T09:27:46;12.65;;;4.95;;
53367;SDS011;39271;45.618;20.024;2022-07-23T09:30:18;6.43;;;3.97;;
53367;SDS011;39271;45.618;20.024;2022-07-23T09:35:52;10.82;;;4.75;;
53367;SDS011;39271;45.618;20.024;2022-07-23T09:38:20;9.57;;;4.43;;
53367;SDS011;39271;45.618;20.024;2022-07-23T09:41:04;17.15;;;4.10;;
53367;SDS011;39271;45.618;20.024;2022-07-23T09:43:32;12.25;;;4.00;;
53367;SDS011;39271;45.618;20.024;2022-07-23T09:49:11;14.13;;;4.68;;
53367;SDS011;39271;45.618;20.024;2022-07-23T09:51:45;10.90;;;3.83;;
53367;SDS011;39271;45.618;20.024;2022-07-23T09:54:28;11.45;;;4.28;;
53367;SDS011;39271;45.618;20.024;2022-07-23T09:57:05;10.02;;;4.28;;
53367;SDS011;39271;45.618;20.024;2022-07-23T09:59:35;13.93;;;4.10;;
53367;SDS011;39271;45.618;20.024;2022-07-23T10:02:04;6.90;;;3.88;;
53367;SDS011;39271;45.618;20.024;2022-07-23T10:04:33;8.15;;;4.03;;
53367;SDS011;39271;45.618;20.024;2022-07-23T10:07:02;13.25;;;4.25;;
53367;SDS011;39271;45.618;20.024;2022-07-23T10:09:31;8.20;;;3.88;;
53367;SDS011;39271;45.618;20.024;2022-07-23T10:12:03;16.35;;;4.65;;
53367;SDS011;39271;45.618;20.024;2022-07-23T10:14:37;12.02;;;5.25;;
53367;SDS011;39271;45.618;20.024;2022-07-23T10:17:04;10.30;;;4.30;;
53367;SDS011;39271;45.618;20.024;2022-07-23T10:19:31;10.10;;;4.63;;
53367;SDS011;39271;45.618;20.024;2022-07-23T10:21:59;10.18;;;3.70;;
53367;SDS011;39271;45.618;20.024;2022-07-23T10:24:55;12.32;;;4.72;;
53367;SDS011;39271;45.618;20.024;2022-07-23T10:30:20;10.27;;;4.18;;
53367;SDS011;39271;45.618;20.024;2022-07-23T10:36:19;6.47;;;4.25;;
53367;SDS011;39271;45.618;20.024;2022-07-23T10:41:38;10.15;;;4.72;;
53367;SDS011;39271;45.618;20.024;2022-07-23T10:44:12;10.05;;;4.95;;
53367;SDS011;39271;45.618;20.024;2022-07-23T10:47:02;6.95;;;4.75;;
53367;SDS011;39271;45.618;20.024;2022-07-23T10:49:50;10.75;;;4.13;;
53367;SDS011;39271;45.618;20.024;2022-07-23T10:52:22;9.65;;;4.57;;
53367;SDS011;39271;45.618;20.024;2022-07-23T10:54:56;6.55;;;4.32;;
53367;SDS011;39271;45.618;20.024;2022-07-23T10:57:46;8.63;;;4.03;;
53367;SDS011;39271;45.618;20.024;2022-07-23T11:00:20;9.13;;;4.93;;
53367;SDS011;39271;45.618;20.024;2022-07-23T11:02:58;12.55;;;4.57;;
53367;SDS011;39271;45.618;20.024;2022-07-23T11:05:52;13.60;;;5.85;;
53367;SDS011;39271;45.618;20.024;2022-07-23T11:08:19;10.48;;;4.50;;
53367;SDS011;39271;45.618;20.024;2022-07-23T11:10:52;13.00;;;5.00;;
53367;SDS011;39271;45.618;20.024;2022-07-23T11:13:45;10.73;;;4.97;;
53367;SDS011;39271;45.618;20.024;2022-07-23T11:16:12;8.98;;;4.80;;
53367;SDS011;39271;45.618;20.024;2022-07-23T11:24:05;11.52;;;4.45;;
53367;SDS011;39271;45.618;20.024;2022-07-23T11:34:51;14.20;;;4.95;;
53367;SDS011;39271;45.618;20.024;2022-07-23T11:37:41;10.18;;;4.10;;
53367;SDS011;39271;45.618;20.024;2022-07-23T11:40:13;11.60;;;4.45;;
53367;SDS011;39271;45.618;20.024;2022-07-23T11:42:59;11.45;;;4.72;;
53367;SDS011;39271;45.618;20.024;2022-07-23T11:48:05;11.80;;;4.80;;
53367;SDS011;39271;45.618;20.024;2022-07-23T11:50:36;12.55;;;4.50;;
53367;SDS011;39271;45.618;20.024;2022-07-23T11:53:12;11.25;;;6.63;;
53367;SDS011;39271;45.618;20.024;2022-07-23T11:55:54;11.57;;;5.25;;
53367;SDS011;39271;45.618;20.024;2022-07-23T11:58:30;11.27;;;5.32;;
53367;SDS011;39271;45.618;20.024;2022-07-23T12:01:10;10.45;;;4.28;;
53367;SDS011;39271;45.618;20.024;2022-07-23T12:03:37;8.10;;;4.50;;
53367;SDS011;39271;45.618;20.024;2022-07-23T12:06:16;6.47;;;4.28;;
53367;SDS011;39271;45.618;20.024;2022-07-23T12:08:51;8.33;;;4.53;;
53367;SDS011;39271;45.618;20.024;2022-07-23T12:11:20;9.23;;;5.00;;
53367;SDS011;39271;45.618;20.024;2022-07-23T12:14:29;11.43;;;5.22;;
53367;SDS011;39271;45.618;20.024;2022-07-23T12:20:00;10.07;;;5.47;;
53367;SDS011;39271;45.618;20.024;2022-07-23T12:33:15;8.57;;;4.43;;
53367;SDS011;39271;45.618;20.024;2022-07-23T12:36:17;10.85;;;4.70;;
53367;SDS011;39271;45.618;20.024;2022-07-23T12:38:47;10.55;;;5.35;;
53367;SDS011;39271;45.618;20.024;2022-07-23T12:45:12;10.63;;;5.28;;
53367;SDS011;39271;45.618;20.024;2022-07-23T12:47:50;10.98;;;4.30;;
53367;SDS011;39271;45.618;20.024;2022-07-23T12:56:44;13.55;;;5.68;;
53367;SDS011;39271;45.618;20.024;2022-07-23T12:59:34;9.43;;;4.75;;
53367;SDS011;39271;45.618;20.024;2022-07-23T13:19:25;11.30;;;4.90;;
53367;SDS011;39271;45.618;20.024;2022-07-23T13:29:00;9.57;;;4.47;;
53367;SDS011;39271;45.618;20.024;2022-07-23T13:31:37;12.05;;;5.50;;
53367;SDS011;39271;45.618;20.024;2022-07-23T13:34:43;9.68;;;4.93;;
53367;SDS011;39271;45.618;20.024;2022-07-23T13:37:28;9.07;;;3.97;;
53367;SDS011;39271;45.618;20.024;2022-07-23T13:40:08;8.65;;;4.15;;
53367;SDS011;39271;45.618;20.024;2022-07-23T13:42:52;9.02;;;4.60;;
53367;SDS011;39271;45.618;20.024;2022-07-23T13:45:38;7.82;;;4.40;;
53367;SDS011;39271;45.618;20.024;2022-07-23T13:48:10;8.85;;;4.53;;
53367;SDS011;39271;45.618;20.024;2022-07-23T13:53:47;11.25;;;4.75;;
53367;SDS011;39271;45.618;20.024;2022-07-23T13:59:07;8.15;;;4.78;;
53367;SDS011;39271;45.618;20.024;2022-07-23T14:01:38;9.43;;;4.70;;
53367;SDS011;39271;45.618;20.024;2022-07-23T14:04:12;9.55;;;4.90;;
53367;SDS011;39271;45.618;20.024;2022-07-23T14:07:15;5.97;;;4.43;;
53367;SDS011;39271;45.618;20.024;2022-07-23T14:51:37;10.18;;;4.25;;
53367;SDS011;39271;45.618;20.024;2022-07-23T15:21:54;9.45;;;4.82;;
53367;SDS011;39271;45.618;20.024;2022-07-23T15:38:13;14.00;;;4.65;;
53367;SDS011;39271;45.618;20.024;2022-07-23T15:51:26;8.80;;;4.43;;
53367;SDS011;39271;45.618;20.024;2022-07-23T15:57:04;12.30;;;4.57;;
53367;SDS011;39271;45.618;20.024;2022-07-23T15:59:45;10.07;;;4.70;;
53367;SDS011;39271;45.618;20.024;2022-07-23T16:02:15;6.55;;;4.32;;
53367;SDS011;39271;45.618;20.024;2022-07-23T16:05:15;8.10;;;4.40;;
53367;SDS011;39271;45.618;20.024;2022-07-23T16:07:42;7.63;;;4.22;;
53367;SDS011;39271;45.618;20.024;2022-07-23T16:10:08;10.52;;;4.82;;
53367;SDS011;39271;45.618;20.024;2022-07-23T16:12:46;11.73;;;4.53;;
53367;SDS011;39271;45.618;20.024;2022-07-23T16:15:18;8.40;;;4.47;;
53367;SDS011;39271;45.618;20.024;2022-07-23T16:18:09;14.00;;;4.82;;
53367;SDS011;39271;45.618;20.024;2022-07-23T16:23:55;7.55;;;4.25;;
53367;SDS011;39271;45.618;20.024;2022-07-23T16:26:50;8.52;;;4.70;;
53367;SDS011;39271;45.618;20.024;2022-07-23T16:29:28;9.57;;;4.85;;
53367;SDS011;39271;45.618;20.024;2022-07-23T16:31:56;9.13;;;4.90;;
53367;SDS011;39271;45.618;20.024;2022-07-23T16:34:35;11.20;;;4.30;;
53367;SDS011;39271;45.618;20.024;2022-07-23T16:37:04;12.15;;;4.18;;
53367;SDS011;39271;45.618;20.024;2022-07-23T16:39:33;9.55;;;5.07;;
53367;SDS011;39271;45.618;20.024;2022-07-23T16:42:13;8.02;;;4.03;;
53367;SDS011;39271;45.618;20.024;2022-07-23T16:48:26;10.02;;;4.00;;
53367;SDS011;39271;45.618;20.024;2022-07-23T16:51:15;12.80;;;4.22;;
53367;SDS011;39271;45.618;20.024;2022-07-23T16:54:02;10.13;;;4.25;;
53367;SDS011;39271;45.618;20.024;2022-07-23T16:56:48;12.02;;;4.50;;
53367;SDS011;39271;45.618;20.024;2022-07-23T16:59:30;6.60;;;3.75;;
53367;SDS011;39271;45.618;20.024;2022-07-23T17:04:36;11.45;;;4.07;;
53367;SDS011;39271;45.618;20.024;2022-07-23T17:07:37;6.68;;;3.75;;
53367;SDS011;39271;45.618;20.024;2022-07-23T17:16:28;13.40;;;4.70;;
53367;SDS011;39271;45.618;20.024;2022-07-23T17:19:00;7.28;;;3.60;;
53367;SDS011;39271;45.618;20.024;2022-07-23T17:24:59;4.85;;;3.70;;
53367;SDS011;39271;45.618;20.024;2022-07-23T17:27:36;6.28;;;3.80;;
53367;SDS011;39271;45.618;20.024;2022-07-23T17:30:11;7.20;;;3.65;;
53367;SDS011;39271;45.618;20.024;2022-07-23T17:32:40;12.07;;;4.85;;
53367;SDS011;39271;45.618;20.024;2022-07-23T17:35:12;11.73;;;3.92;;
53367;SDS011;39271;45.618;20.024;2022-07-23T17:37:41;16.05;;;3.72;;
53367;SDS011;39271;45.618;20.024;2022-07-23T17:40:12;10.13;;;4.82;;
53367;SDS011;39271;45.618;20.024;2022-07-23T17:42:38;13.80;;;4.20;;
53367;SDS011;39271;45.618;20.024;2022-07-23T17:45:10;7.70;;;4.63;;
53367;SDS011;39271;45.618;20.024;2022-07-23T17:47:43;10.60;;;3.70;;
53367;SDS011;39271;45.618;20.024;2022-07-23T17:50:11;9.65;;;4.35;;
53367;SDS011;39271;45.618;20.024;2022-07-23T17:55:16;5.63;;;3.55;;
53367;SDS011;39271;45.618;20.024;2022-07-23T17:57:42;7.80;;;3.90;;
53367;SDS011;39271;45.618;20.024;2022-07-23T18:00:12;8.30;;;4.60;;
53367;SDS011;39271;45.618;20.024;2022-07-23T18:02:42;10.82;;;5.18;;
53367;SDS011;39271;45.618;20.024;2022-07-23T18:05:10;13.95;;;6.65;;
53367;SDS011;39271;45.618;20.024;2022-07-23T18:07:36;13.82;;;8.38;;
53367;SDS011;39271;45.618;20.024;2022-07-23T18:10:05;11.80;;;7.70;;
53367;SDS011;39271;45.618;20.024;2022-07-23T18:12:34;18.17;;;12.52;;
53367;SDS011;39271;45.618;20.024;2022-07-23T18:15:00;16.60;;;12.75;;
53367;SDS011;39271;45.618;20.024;2022-07-23T18:17:28;20.25;;;11.48;;
53367;SDS011;39271;45.618;20.024;2022-07-23T18:19:54;19.13;;;10.02;;
53367;SDS011;39271;45.618;20.024;2022-07-23T18:22:20;15.45;;;10.98;;
53367;SDS011;39271;45.618;20.024;2022-07-23T18:24:51;17.45;;;14.05;;
53367;SDS011;39271;45.618;20.024;2022-07-23T18:27:17;17.50;;;11.35;;
53367;SDS011;39271;45.618;20.024;2022-07-23T18:29:58;33.92;;;20.42;;
53367;SDS011;39271;45.618;20.024;2022-07-23T18:32:24;30.90;;;24.42;;
53367;SDS011;39271;45.618;20.024;2022-07-23T18:35:02;39.33;;;34.10;;